Aérodrome :
LOGIN :

S'inscrire | Disclaimer

   EN    FR    IT 

 










Légende :    VFR   VFR Marginal   IFR   IFR Intensif   IFR Très Intensif
Visi : 
Plafond : 
>= 8 km
>= 3000ft
5 à 8 km
1000 à 3000 ft
1500m à 5 km
500 à 1000 ft
800 à 1500m
200 à 500 ft
< 800m
< 200 ft
Symboles :   Orages  Brouillard  Fortes neiges  Fortes précipitations  Vent > 20 kt
SIGMETs :   Divers  Orages  Givrage  Turbulence  Onde Orograph.  Cendres Volcan.






- Altitude de l'aérodrome : 290 ft
- Code IATA : LAI


LFRO - Lannion

DERNIER METAR :
  • 121900Z AUTO 25017G28KT 9000 DZ BKN010/// OVC015/// ///TCU 11/10 Q0986

METARs EXPIRÉS :
  • 121830Z AUTO 26020KT 9999 BKN010 OVC015 11/10 Q0987
  • 121800Z AUTO 26016KT 8000 -RA BKN007/// BKN012/// BKN019/// ///TCU 10/09 Q0987
  • 121730Z AUTO 25013KT 9999 BKN013/// OVC018/// ///TCU 11/09 Q0988
  • 121700Z AUTO 25018G29KT 9999 BKN015/// BKN021/// OVC028/// ///TCU 11/09 Q0988
  • 121630Z AUTO 27017KT 9999 -RA SCT010/// BKN016/// BKN022/// ///CB 10/09 Q0989

Prévision TAF périmée.



MET'MAP, la Météo Aéronautique d'un coup d'oeil ! - Copyright ORBIFLY Décembre 2007 - Disclaimer

ORBIFLY MET'MAP TEAM :

Programmation & Développement : Alexandra Zaïnal
Sur une idée originale de : Baudouin d'Aumeries
Assistance à la programmation : Marc-Olivier Méhu
Soutien technique & logistique : Manuel Goepfert

Contact : metmap@orbifly.com




SOURCES & CREDITS :

   NOAA